Time;durP1;ratioP1;P1;durP2;ratioP2;P2;SDS_P1;SDS_P2;PMS_P1;PMS_P2;Temp;Humidity;BMP_temperature;BMP_pressure;BME280_temperature;BME280_humidity;BME280_pressure;Samples;Min_cycle;Max_cycle;Signal;HPM_P1;HPM_P2
2022/10/02 00:00:15;;;;;;;13.02;2.97;;;;;;;9.57;100.00;100647.44;4967528;28;20641;-48
2022/10/02 00:02:49;;;;;;;12.98;2.63;;;;;;;9.55;100.00;100649.28;4962410;28;20192;-49
2022/10/02 00:05:23;;;;;;;10.75;2.10;;;;;;;9.54;100.00;100660.94;4966684;28;20703;-47
2022/10/02 00:07:56;;;;;;;16.88;2.78;;;;;;;9.53;100.00;100653.81;4955991;28;20298;-47
2022/10/02 00:10:29;;;;;;;14.40;2.00;;;;;;;9.57;100.00;100648.31;4955336;28;20298;-48
2022/10/02 00:13:01;;;;;;;9.43;1.70;;;;;;;9.65;100.00;100656.06;4964912;28;20190;-47
2022/10/02 00:15:30;;;;;;;12.65;2.25;;;;;;;9.63;100.00;100657.91;4965207;28;20190;-48
2022/10/02 00:18:02;;;;;;;10.55;1.90;;;;;;;9.64;100.00;100663.22;4965407;28;20260;-48
2022/10/02 00:20:42;;;;;;;9.15;1.52;;;;;;;9.75;100.00;100668.19;4963676;28;20195;-47
2022/10/02 00:23:21;;;;;;;11.25;2.00;;;;;;;9.70;100.00;100675.47;4957452;28;20200;-47
2022/10/02 00:26:00;;;;;;;10.32;1.85;;;;;;;9.68;100.00;100682.69;4958344;28;20206;-49
2022/10/02 00:28:32;;;;;;;7.15;1.58;;;;;;;9.71;100.00;100677.25;4965646;28;20629;-48
2022/10/02 00:31:05;;;;;;;13.38;2.15;;;;;;;9.73;100.00;100675.38;4967055;28;20689;-50
2022/10/02 00:33:54;;;;;;;7.60;1.77;;;;;;;9.75;100.00;100677.97;4977407;28;20198;-50
2022/10/02 00:36:46;;;;;;;13.85;2.03;;;;;;;9.66;100.00;100674.75;4963254;28;20217;-48
2022/10/02 00:39:39;;;;;;;9.52;1.60;;;;;;;9.69;100.00;100671.94;4960570;28;20226;-47
2022/10/02 00:42:29;;;;;;;7.47;1.88;;;;;;;9.73;100.00;100679.84;4976544;28;20285;-48
2022/10/02 00:45:46;;;;;;;19.92;2.45;;;;;;;9.70;100.00;100683.50;4966890;28;20212;-47
2022/10/02 00:48:29;;;;;;;14.45;1.88;;;;;;;9.66;100.00;100681.88;4945766;28;20187;-48
2022/10/02 00:51:24;;;;;;;13.90;2.28;;;;;;;9.65;100.00;100681.00;4963763;28;20617;-47
2022/10/02 00:54:10;;;;;;;8.57;1.42;;;;;;;9.67;100.00;100686.31;4961233;28;20209;-48
2022/10/02 00:57:04;;;;;;;12.23;1.92;;;;;;;9.68;100.00;100693.38;4970016;28;20249;-49
2022/10/02 00:59:35;;;;;;;9.07;1.88;;;;;;;9.64;100.00;100691.75;4967547;28;20204;-50
2022/10/02 01:02:24;;;;;;;9.63;1.92;;;;;;;9.68;100.00;100691.56;4970184;28;20218;-47
2022/10/02 01:04:50;;;;;;;9.48;2.05;;;;;;;9.76;100.00;100698.47;4977501;28;20301;-46
2022/10/02 01:07:16;;;;;;;8.50;1.45;;;;;;;9.78;100.00;100692.13;4964707;28;20285;-46
2022/10/02 01:09:41;;;;;;;14.68;2.20;;;;;;;9.73;100.00;100683.41;4972267;28;20197;-48
2022/10/02 01:12:07;;;;;;;9.57;1.95;;;;;;;9.75;100.00;100684.22;4971132;28;20190;-48
2022/10/02 01:14:38;;;;;;;5.93;1.83;;;;;;;9.79;100.00;100676.94;4970231;28;20218;-48
2022/10/02 01:17:22;;;;;;;9.38;1.75;;;;;;;9.75;100.00;100680.66;4971236;28;20189;-47
2022/10/02 01:19:48;;;;;;;10.88;2.00;;;;;;;9.73;100.00;100671.81;4965790;28;20179;-48
2022/10/02 01:22:46;;;;;;;10.90;1.58;;;;;;;9.80;100.00;100668.88;4957333;28;20328;-50
2022/10/02 01:25:12;;;;;;;11.10;2.00;;;;;;;9.80;100.00;100676.03;4944571;28;20238;-47
2022/10/02 01:27:38;;;;;;;11.77;1.90;;;;;;;9.84;100.00;100677.66;4965191;28;20206;-49
2022/10/02 01:30:06;;;;;;;8.20;1.70;;;;;;;9.85;100.00;100679.38;4967392;28;20627;-49
2022/10/02 01:32:34;;;;;;;9.65;1.70;;;;;;;9.78;100.00;100692.13;4967956;28;20190;-49
2022/10/02 01:34:59;;;;;;;10.30;1.65;;;;;;;9.89;100.00;100692.59;4962482;28;20190;-49
2022/10/02 01:37:29;;;;;;;12.55;2.22;;;;;;;9.93;100.00;100682.66;4959245;28;20196;-50
2022/10/02 01:39:59;;;;;;;13.63;2.35;;;;;;;9.92;100.00;100675.53;4961596;28;20662;-50
2022/10/02 01:42:25;;;;;;;16.00;2.08;;;;;;;9.88;100.00;100672.13;4964212;28;20273;-49
2022/10/02 01:44:51;;;;;;;10.95;1.92;;;;;;;9.93;100.00;100687.13;4980172;28;20272;-49
2022/10/02 01:47:24;;;;;;;10.93;1.83;;;;;;;9.99;100.00;100684.22;4963983;28;20277;-49
2022/10/02 01:50:22;;;;;;;10.07;2.15;;;;;;;9.92;100.00;100690.72;4959472;28;20182;-48
2022/10/02 01:53:06;;;;;;;12.35;2.03;;;;;;;9.94;100.00;100686.19;4948365;28;20211;-48
2022/10/02 01:55:44;;;;;;;11.52;1.65;;;;;;;9.88;100.00;100689.97;4965303;28;20174;-48
2022/10/02 01:58:21;;;;;;;6.28;1.50;;;;;;;9.90;100.00;100694.34;4965039;28;20196;-49
2022/10/02 02:01:08;;;;;;;8.73;1.77;;;;;;;9.84;100.00;100697.25;4964459;28;20212;-50
2022/10/02 02:03:52;;;;;;;7.30;1.42;;;;;;;9.77;100.00;100708.22;4979266;28;20217;-45
2022/10/02 02:06:25;;;;;;;11.98;1.88;;;;;;;9.81;100.00;100710.72;4973498;28;20178;-44
2022/10/02 02:08:54;;;;;;;10.95;1.75;;;;;;;9.79;100.00;100709.03;4973082;28;20190;-43
2022/10/02 02:11:21;;;;;;;9.13;1.92;;;;;;;9.78;100.00;100716.22;4973610;28;20589;-44
2022/10/02 02:13:56;;;;;;;8.52;1.38;;;;;;;9.80;100.00;100709.00;4973383;28;20167;-48
2022/10/02 02:16:48;;;;;;;9.77;1.50;;;;;;;9.77;100.00;100719.78;4973583;28;20181;-46
2022/10/02 02:19:29;;;;;;;12.00;1.45;;;;;;;9.77;100.00;100711.78;4973130;28;20497;-45
2022/10/02 02:21:57;;;;;;;6.45;1.60;;;;;;;9.72;100.00;100716.44;4973237;28;20201;-45
2022/10/02 02:24:34;;;;;;;6.07;1.10;;;;;;;9.69;100.00;100722.75;4973320;28;20239;-45
2022/10/02 02:27:01;;;;;;;7.70;1.25;;;;;;;9.67;100.00;100721.94;4973265;28;20181;-49
2022/10/02 02:29:31;;;;;;;7.88;1.13;;;;;;;9.68;100.00;100718.31;4973382;28;20182;-44
2022/10/02 02:31:58;;;;;;;7.13;1.40;;;;;;;9.65;100.00;100722.94;4971523;28;20213;-45
2022/10/02 02:34:32;;;;;;;5.38;1.30;;;;;;;9.62;100.00;100718.56;4973132;28;20229;-46
2022/10/02 02:37:10;;;;;;;7.22;1.55;;;;;;;9.59;100.00;100725.81;4972978;28;20202;-47
2022/10/02 02:39:44;;;;;;;8.27;1.30;;;;;;;9.61;100.00;100723.97;4973198;28;20293;-49
2022/10/02 02:42:14;;;;;;;5.78;1.23;;;;;;;9.58;100.00;100732.13;4972949;28;20177;-46
2022/10/02 02:44:47;;;;;;;9.60;1.67;;;;;;;9.57;100.00;100733.03;4972656;28;20190;-45
2022/10/02 02:47:19;;;;;;;7.03;1.60;;;;;;;9.54;100.00;100731.34;4972972;28;20253;-44
2022/10/02 02:50:02;;;;;;;6.53;1.15;;;;;;;9.49;100.00;100744.88;4972334;28;20177;-48
2022/10/02 02:53:00;;;;;;;4.55;1.42;;;;;;;9.48;100.00;100743.13;4972862;28;20673;-46
2022/10/02 02:55:33;;;;;;;9.23;1.65;;;;;;;9.48;100.00;100735.09;4964263;28;20249;-45
2022/10/02 02:58:10;;;;;;;6.28;1.42;;;;;;;9.44;100.00;100736.13;4972684;28;20170;-46
2022/10/02 03:00:35;;;;;;;7.65;1.38;;;;;;;9.44;100.00;100737.94;4972644;28;20209;-46
2022/10/02 03:03:01;;;;;;;5.95;1.25;;;;;;;9.44;100.00;100732.59;4972908;28;20178;-47
2022/10/02 03:05:28;;;;;;;5.90;1.20;;;;;;;9.43;100.00;100741.56;4972650;28;20281;-49
2022/10/02 03:08:01;;;;;;;6.68;1.35;;;;;;;9.46;100.00;100738.75;4972387;28;20558;-44
2022/10/02 03:11:15;;;;;;;10.15;1.55;;;;;;;9.44;100.00;100748.63;4972690;28;20202;-46
2022/10/02 03:14:21;;;;;;;9.18;1.13;;;;;;;9.44;100.00;100748.63;4960062;28;20280;-45
2022/10/02 03:16:49;;;;;;;5.10;1.30;;;;;;;9.45;100.00;100753.06;4949809;28;20198;-45
2022/10/02 03:19:42;;;;;;;8.43;1.52;;;;;;;9.42;100.00;100766.53;4971725;28;20175;-46
2022/10/02 03:22:18;;;;;;;6.38;1.33;;;;;;;9.41;100.00;100764.78;4972249;28;20261;-50
2022/10/02 03:24:58;;;;;;;6.13;1.50;;;;;;;9.39;100.00;100767.50;4971894;28;20209;-44
2022/10/02 03:27:41;;;;;;;8.55;1.38;;;;;;;9.44;100.00;100765.53;4972023;28;20172;-49
2022/10/02 03:30:12;;;;;;;5.63;1.20;;;;;;;9.45;100.00;100766.44;4972361;28;20289;-45
2022/10/02 03:32:39;;;;;;;9.25;1.50;;;;;;;9.41;100.00;100767.47;4971104;28;20300;-45
2022/10/02 03:35:08;;;;;;;9.30;1.55;;;;;;;9.41;100.00;100760.31;4967986;28;20205;-46
2022/10/02 03:37:33;;;;;;;7.72;1.63;;;;;;;9.39;100.00;100766.66;4967955;28;20212;-44
2022/10/02 03:40:04;;;;;;;4.72;1.42;;;;;;;9.40;100.00;100757.69;4961304;28;20280;-44
2022/10/02 03:42:33;;;;;;;4.53;1.30;;;;;;;9.41;100.00;100770.16;4968930;28;20673;-49
2022/10/02 03:44:59;;;;;;;4.63;1.23;;;;;;;9.44;100.00;100768.22;4964785;28;20202;-44
2022/10/02 03:47:25;;;;;;;12.52;1.77;;;;;;;9.40;100.00;100763.94;4966268;28;20268;-48
2022/10/02 03:49:50;;;;;;;14.15;2.33;;;;;;;9.41;100.00;100770.16;4966121;28;20334;-48
2022/10/02 03:52:19;;;;;;;6.70;1.30;;;;;;;9.49;100.00;100760.06;4969118;28;20182;-45
2022/10/02 03:54:47;;;;;;;6.65;1.58;;;;;;;9.49;100.00;100765.41;4969614;28;20269;-46
2022/10/02 03:57:18;;;;;;;7.57;1.70;;;;;;;9.49;100.00;100771.63;4967895;28;20186;-47
2022/10/02 04:00:00;;;;;;;4.32;1.80;;;;;;;9.48;100.00;100774.34;4970439;28;20182;-47
2022/10/02 04:02:39;;;;;;;8.93;1.52;;;;;;;9.48;100.00;100783.22;4970091;28;20182;-45
2022/10/02 04:05:14;;;;;;;7.28;1.50;;;;;;;9.58;100.00;100788.28;4959889;28;20237;-45
2022/10/02 04:07:42;;;;;;;11.35;1.90;;;;;;;9.63;100.00;100783.63;4964787;28;20181;-48
2022/10/02 04:10:29;;;;;;;8.48;1.60;;;;;;;9.71;100.00;100778.91;4964305;28;20212;-48
2022/10/02 04:13:09;;;;;;;11.15;1.67;;;;;;;9.75;100.00;100801.06;4966888;28;20679;-45
2022/10/02 04:15:35;;;;;;;8.77;1.40;;;;;;;9.76;100.00;100776.94;4968993;28;20188;-46
2022/10/02 04:18:14;;;;;;;8.82;2.00;;;;;;;9.79;100.00;100778.63;4966508;28;20277;-44
2022/10/02 04:20:48;;;;;;;8.50;2.05;;;;;;;9.83;100.00;100769.56;4966916;28;20206;-45
2022/10/02 04:23:16;;;;;;;9.35;1.75;;;;;;;9.83;100.00;100778.44;4964998;28;20590;-44
2022/10/02 04:25:47;;;;;;;11.98;1.80;;;;;;;9.88;100.00;100791.66;4963775;28;20288;-44
2022/10/02 04:28:16;;;;;;;16.92;2.22;;;;;;;9.92;100.00;100795.97;4958529;28;20200;-47
2022/10/02 04:30:42;;;;;;;8.00;2.67;;;;;;;9.88;100.00;100789.88;4969413;28;20387;-45
2022/10/02 04:33:18;;;;;;;12.00;2.25;;;;;;;9.87;100.00;100785.44;4961773;28;20221;-48
2022/10/02 04:35:59;;;;;;;8.75;2.10;;;;;;;9.89;100.00;100788.06;4964149;28;20206;-47
2022/10/02 04:38:46;;;;;;;10.20;2.17;;;;;;;9.85;100.00;100781.06;4965229;28;20189;-46
2022/10/02 04:41:23;;;;;;;7.90;1.48;;;;;;;9.79;100.00;100782.16;4969268;28;20237;-46
2022/10/02 04:44:00;;;;;;;10.02;1.80;;;;;;;9.75;100.00;100785.00;4959599;28;20567;-47
2022/10/02 04:46:47;;;;;;;8.88;1.65;;;;;;;9.75;100.00;100791.25;4964543;28;20190;-45
2022/10/02 04:49:21;;;;;;;6.30;1.65;;;;;;;9.72;100.00;100794.00;4959421;28;20190;-44
2022/10/02 04:52:00;;;;;;;7.80;2.00;;;;;;;9.65;100.00;100787.13;4965425;28;20870;-47
2022/10/02 04:54:34;;;;;;;8.73;2.22;;;;;;;9.57;100.00;100799.91;4967601;28;20543;-47
2022/10/02 04:57:23;;;;;;;8.13;2.03;;;;;;;9.53;100.00;100796.44;4965566;28;20240;-46
2022/10/02 05:00:01;;;;;;;5.03;1.90;;;;;;;9.59;100.00;100798.03;4963935;28;20181;-44
2022/10/02 05:02:51;;;;;;;11.93;2.20;;;;;;;9.52;100.00;100804.53;4964893;28;20198;-44
2022/10/02 05:05:32;;;;;;;8.20;1.77;;;;;;;9.54;100.00;100819.59;4962038;28;20205;-47
2022/10/02 05:08:16;;;;;;;5.95;1.98;;;;;;;9.51;100.00;100816.16;4977683;28;20217;-50
2022/10/02 05:10:57;;;;;;;7.80;1.80;;;;;;;9.53;100.00;100811.63;4964023;28;20220;-50
2022/10/02 05:13:31;;;;;;;7.78;1.98;;;;;;;9.44;100.00;100813.69;4964554;28;20217;-48
2022/10/02 05:16:08;;;;;;;7.47;1.90;;;;;;;9.44;100.00;100821.69;4964702;28;20276;-47
2022/10/02 05:19:03;;;;;;;4.43;1.45;;;;;;;9.46;100.00;100817.19;4961896;28;20186;-48
2022/10/02 05:21:47;;;;;;;7.68;1.83;;;;;;;9.42;100.00;100815.56;4964352;28;20230;-48
2022/10/02 05:24:15;;;;;;;7.78;1.92;;;;;;;9.44;100.00;100821.69;4967743;28;20218;-48
2022/10/02 05:26:57;;;;;;;10.05;2.22;;;;;;;9.48;100.00;100811.78;4970188;28;20187;-46
2022/10/02 05:29:41;;;;;;;6.57;1.75;;;;;;;9.48;100.00;100811.78;4968550;28;20269;-49
2022/10/02 05:32:25;;;;;;;9.73;1.70;;;;;;;9.48;100.00;100817.13;4964226;28;20203;-48
2022/10/02 05:35:06;;;;;;;5.40;1.58;;;;;;;9.49;100.00;100808.19;4969624;28;20189;-49
2022/10/02 05:38:04;;;;;;;5.30;1.88;;;;;;;9.55;100.00;100824.00;4964864;28;20218;-45
2022/10/02 05:40:46;;;;;;;8.07;1.95;;;;;;;9.58;100.00;100831.09;4965122;28;20210;-47
2022/10/02 05:43:33;;;;;;;5.50;1.80;;;;;;;9.62;100.00;100830.03;4967659;28;20250;-48
2022/10/02 05:46:07;;;;;;;7.28;2.10;;;;;;;9.72;100.00;100823.44;4963044;28;20207;-48
2022/10/02 05:48:39;;;;;;;6.45;1.70;;;;;;;9.77;100.00;100839.31;4960267;28;20191;-48
2022/10/02 05:51:43;;;;;;;6.20;1.83;;;;;;;9.80;100.00;100833.88;4966806;28;20224;-50
2022/10/02 05:54:26;;;;;;;7.38;1.90;;;;;;;9.81;100.00;100825.78;4951711;28;20210;-49
2022/10/02 05:57:03;;;;;;;8.70;1.85;;;;;;;9.84;100.00;100840.88;4967736;28;20276;-50
2022/10/02 05:59:38;;;;;;;9.13;1.67;;;;;;;9.88;100.00;100832.69;4962946;28;20226;-48
2022/10/02 06:02:25;;;;;;;7.97;2.00;;;;;;;9.83;100.00;100839.13;4961027;28;20704;-50
2022/10/02 06:04:59;;;;;;;8.48;2.38;;;;;;;9.82;100.00;100850.78;4975308;28;20296;-47
2022/10/02 06:07:26;;;;;;;8.52;1.92;;;;;;;9.79;100.00;100841.03;4968275;28;20193;-49
2022/10/02 06:09:59;;;;;;;6.80;2.00;;;;;;;9.80;100.00;100842.78;4966658;28;20280;-51
2022/10/02 06:12:47;;;;;;;7.45;2.38;;;;;;;9.82;100.00;100835.59;4962403;28;20190;-48
2022/10/02 06:15:30;;;;;;;8.05;2.63;;;;;;;9.92;100.00;100848.63;4972883;28;20681;-50
2022/10/02 06:18:02;;;;;;;6.82;2.75;;;;;;;10.07;100.00;100846.28;4960975;28;20190;-49
2022/10/02 06:20:42;;;;;;;8.77;2.45;;;;;;;10.17;100.00;100852.19;4968491;28;20210;-48
2022/10/02 06:23:17;;;;;;;11.00;2.75;;;;;;;10.21;100.00;100848.47;4965921;28;20201;-48
2022/10/02 06:25:51;;;;;;;6.05;2.70;;;;;;;10.30;100.00;100849.97;4964757;28;20206;-48
2022/10/02 06:28:24;;;;;;;9.07;2.75;;;;;;;10.37;100.00;100854.16;4969295;28;20198;-46
2022/10/02 06:31:08;;;;;;;13.23;3.00;;;;;;;10.43;100.00;100861.97;4959956;28;20213;-47
2022/10/02 06:33:34;;;;;;;12.07;3.67;;;;;;;10.59;100.00;100878.34;4968989;28;20244;-48
2022/10/02 06:36:19;;;;;;;12.70;3.42;;;;;;;10.40;100.00;100875.47;4968073;28;20257;-47
2022/10/02 06:39:13;;;;;;;6.55;3.15;;;;;;;10.36;100.00;100879.19;4966679;28;20191;-48
2022/10/02 06:42:12;;;;;;;9.68;2.97;;;;;;;10.28;100.00;100895.50;4965548;28;20358;-48
2022/10/02 06:44:49;;;;;;;10.00;3.78;;;;;;;10.30;100.00;100887.47;4965219;28;20292;-48
2022/10/02 06:47:36;;;;;;;12.98;3.90;;;;;;;10.38;100.00;100887.16;4960310;28;20246;-48
2022/10/02 06:50:26;;;;;;;11.30;3.42;;;;;;;10.56;100.00;100890.97;4969257;28;20190;-53
2022/10/02 06:53:10;;;;;;;19.67;4.90;;;;;;;10.67;100.00;100897.69;4967115;28;20190;-51
2022/10/02 06:55:47;;;;;;;12.10;4.57;;;;;;;10.65;100.00;100894.19;4965935;28;20594;-50
2022/10/02 06:58:35;;;;;;;12.57;4.43;;;;;;;10.98;100.00;100885.81;4966612;28;20212;-46
2022/10/02 07:01:13;;;;;;;11.27;3.70;;;;;;;11.40;100.00;100879.66;4955605;28;20307;-48
2022/10/02 07:04:00;;;;;;;17.00;4.30;;;;;;;11.51;100.00;100892.63;4961707;28;20240;-47
2022/10/02 07:06:45;;;;;;;9.63;3.47;;;;;;;11.44;100.00;100891.13;4961251;28;20232;-48
2022/10/02 07:09:30;;;;;;;11.75;2.90;;;;;;;11.40;100.00;100901.13;4964600;28;20240;-47
2022/10/02 07:12:12;;;;;;;10.32;2.88;;;;;;;11.42;100.00;100901.06;4967566;28;20206;-47
2022/10/02 07:14:50;;;;;;;11.07;3.13;;;;;;;11.61;100.00;100893.09;4954907;28;20256;-46
2022/10/02 07:17:33;;;;;;;10.95;3.17;;;;;;;11.69;100.00;100888.31;4960057;28;20190;-46
2022/10/02 07:20:21;;;;;;;11.63;3.53;;;;;;;11.63;100.00;100899.28;4964836;28;20199;-48
2022/10/02 07:23:27;;;;;;;4.70;1.77;;;;;;;11.64;100.00;100890.31;4964585;28;20178;-49
2022/10/02 07:26:12;;;;;;;12.90;2.53;;;;;;;11.62;100.00;100879.63;4963289;28;20229;-48
2022/10/02 07:28:41;;;;;;;8.75;2.35;;;;;;;11.60;100.00;100888.69;4956787;28;20331;-49
2022/10/02 07:31:44;;;;;;;6.28;2.05;;;;;;;11.66;100.00;100892.00;4963233;28;20252;-48
2022/10/02 07:34:27;;;;;;;7.13;2.08;;;;;;;11.59;100.00;100886.94;4960979;28;20674;-48
2022/10/02 07:37:10;;;;;;;8.07;2.35;;;;;;;11.73;100.00;100896.16;4965010;28;20191;-51
2022/10/02 07:40:13;;;;;;;9.95;2.13;;;;;;;11.94;100.00;100896.25;4959943;28;20287;-50
2022/10/02 07:42:50;;;;;;;6.65;1.63;;;;;;;12.22;100.00;100900.38;4960479;28;20546;-48
2022/10/02 07:45:30;;;;;;;5.38;1.45;;;;;;;12.56;100.00;100906.00;4956887;28;20269;-47
2022/10/02 07:48:29;;;;;;;8.65;1.70;;;;;;;13.02;100.00;100902.16;4965520;28;20339;-49
2022/10/02 07:51:05;;;;;;;5.22;1.50;;;;;;;12.79;100.00;100914.84;4963348;28;20645;-47
2022/10/02 07:53:48;;;;;;;6.07;1.80;;;;;;;12.42;100.00;100931.75;4962924;28;20637;-47
2022/10/02 07:56:19;;;;;;;4.88;1.65;;;;;;;12.20;100.00;100924.66;4962783;28;20198;-47
2022/10/02 08:01:19;;;;;;;9.55;2.08;;;;;;;11.64;100.00;100909.97;4955697;28;20354;-82
2022/10/02 08:03:51;;;;;;;8.07;2.20;;;;;;;11.53;100.00;100934.56;4963234;28;20225;-81
2022/10/02 08:06:17;;;;;;;5.20;1.55;;;;;;;11.54;100.00;100924.69;4995618;28;20340;-81
2022/10/02 08:09:08;;;;;;;6.93;1.60;;;;;;;11.51;100.00;100940.94;4996533;28;20181;-81
2022/10/02 08:11:47;;;;;;;8.75;1.83;;;;;;;11.82;100.00;100935.16;4995715;28;20713;-82
2022/10/02 08:14:35;;;;;;;9.65;2.00;;;;;;;12.02;100.00;100931.66;4997148;28;20187;-81
2022/10/02 08:17:30;;;;;;;9.10;1.77;;;;;;;12.53;100.00;100932.16;5013243;28;20196;-82
2022/10/02 08:20:26;;;;;;;11.63;2.58;;;;;;;12.90;100.00;100931.38;4995431;28;20565;-81
2022/10/02 08:22:59;;;;;;;5.10;1.30;;;;;;;13.00;100.00;100934.47;4995221;28;20291;-79
2022/10/02 08:25:35;;;;;;;10.88;2.85;;;;;;;13.26;100.00;100937.78;4987902;28;20221;-80
2022/10/02 08:28:31;;;;;;;8.05;2.00;;;;;;;13.56;100.00;100943.53;5004451;28;20185;-79
2022/10/02 08:30:57;;;;;;;11.10;2.63;;;;;;;13.48;100.00;100938.50;4983605;28;20241;-79
2022/10/02 08:33:24;;;;;;;7.70;1.98;;;;;;;13.81;100.00;100940.47;4972211;28;20200;-78
2022/10/02 08:36:15;;;;;;;11.43;2.17;;;;;;;13.95;100.00;100943.38;4996442;28;20181;-80
2022/10/02 08:39:36;;;;;;;6.68;1.70;;;;;;;13.97;100.00;100945.97;4988336;28;20197;-78
2022/10/02 08:42:44;;;;;;;11.90;2.03;;;;;;;14.14;100.00;100945.13;4981796;28;20197;-78
2022/10/02 08:45:40;;;;;;;8.57;1.88;;;;;;;14.33;100.00;100945.03;4943310;28;20221;-78
2022/10/02 08:48:15;;;;;;;7.90;2.30;;;;;;;14.30;100.00;100943.38;4994616;28;20696;-79
2022/10/02 08:51:26;;;;;;;11.30;2.53;;;;;;;14.35;100.00;100944.00;5000170;28;20224;-79
2022/10/02 08:54:21;;;;;;;12.30;2.42;;;;;;;14.49;100.00;100951.38;5002211;28;20264;-79
2022/10/02 08:57:06;;;;;;;9.68;2.00;;;;;;;14.28;100.00;100950.69;4986693;28;20202;-79
2022/10/02 09:00:04;;;;;;;12.40;2.60;;;;;;;14.65;100.00;100950.56;4995197;28;20259;-79
2022/10/02 09:02:56;;;;;;;14.43;2.47;;;;;;;14.72;100.00;100944.78;4998214;28;20189;-79
2022/10/02 09:05:54;;;;;;;14.23;2.25;;;;;;;14.63;99.84;100939.91;4989149;28;20276;-79
2022/10/02 09:08:50;;;;;;;11.07;2.28;;;;;;;14.63;99.72;100954.25;4985611;28;20193;-79
2022/10/02 09:11:46;;;;;;;12.35;2.20;;;;;;;14.62;100.00;100951.63;4980618;28;20210;-79
2022/10/02 09:14:18;;;;;;;14.18;2.75;;;;;;;14.87;99.71;100948.50;4994262;28;20333;-79
2022/10/02 09:17:02;;;;;;;19.70;2.85;;;;;;;15.13;99.35;100951.56;4991960;28;20186;-78
2022/10/02 09:19:52;;;;;;;7.72;1.63;;;;;;;14.98;98.36;100956.00;4994294;28;20209;-79
2022/10/02 09:22:26;;;;;;;8.90;2.00;;;;;;;14.66;96.57;100957.72;4993386;28;20194;-78
2022/10/02 09:25:11;;;;;;;16.15;2.50;;;;;;;14.96;96.02;100963.31;4991221;28;20209;-78
2022/10/02 09:27:56;;;;;;;13.30;2.53;;;;;;;15.12;96.40;100961.50;5006232;28;20197;-79
2022/10/02 09:31:07;;;;;;;9.93;2.13;;;;;;;15.11;95.33;100959.78;4995374;28;20243;-79
2022/10/02 09:33:49;;;;;;;12.48;2.53;;;;;;;15.19;95.26;100965.59;4996026;28;20201;-79
2022/10/02 09:36:39;;;;;;;13.82;2.50;;;;;;;14.69;95.12;100968.34;4999322;28;20192;-78
2022/10/02 09:39:33;;;;;;;10.88;2.20;;;;;;;14.51;94.65;100967.47;4983271;28;20263;-79
2022/10/02 09:42:14;;;;;;;11.55;2.25;;;;;;;14.68;94.50;100970.19;4992430;28;20586;-79
2022/10/02 09:44:57;;;;;;;14.80;3.00;;;;;;;14.33;95.41;100970.16;4988926;28;20214;-78
2022/10/02 09:48:03;;;;;;;15.32;2.35;;;;;;;14.47;96.43;100982.06;5003703;28;20226;-80
2022/10/02 09:51:05;;;;;;;15.20;2.80;;;;;;;14.75;96.24;100970.72;5006585;28;20265;-79
2022/10/02 09:53:53;;;;;;;12.07;2.45;;;;;;;14.55;95.33;100964.56;4979519;28;20242;-79
2022/10/02 09:56:41;;;;;;;11.55;2.05;;;;;;;14.70;95.09;100967.41;4993158;28;20194;-79
2022/10/02 09:59:48;;;;;;;11.65;2.33;;;;;;;14.61;94.00;100966.94;5002080;28;20670;-80
2022/10/02 10:02:29;;;;;;;9.93;2.00;;;;;;;14.78;93.71;100978.63;4976451;28;20204;-79
2022/10/02 10:05:33;;;;;;;10.07;2.95;;;;;;;14.63;92.43;100972.25;4966371;28;20217;-80
2022/10/02 10:08:27;;;;;;;12.30;2.47;;;;;;;14.47;91.44;100982.06;4982903;28;20626;-80
2022/10/02 10:11:21;;;;;;;8.95;2.40;;;;;;;15.00;91.08;100978.38;4986576;28;20765;-79
2022/10/02 10:13:56;;;;;;;8.02;1.90;;;;;;;15.47;90.57;100979.41;5001026;28;20184;-79
2022/10/02 10:16:47;;;;;;;14.48;2.50;;;;;;;15.24;89.31;100970.75;5001127;28;20200;-79
2022/10/02 10:19:37;;;;;;;11.63;2.53;;;;;;;15.39;88.65;100979.81;4985079;28;20186;-80
2022/10/02 10:22:27;;;;;;;16.67;2.33;;;;;;;15.31;88.61;100982.09;4984661;28;20217;-80
2022/10/02 10:24:59;;;;;;;9.30;2.13;;;;;;;14.81;89.00;100982.06;4988989;28;20218;-80
2022/10/02 10:27:28;;;;;;;10.07;2.30;;;;;;;15.03;89.16;100991.69;4991274;28;20185;-80
2022/10/02 10:30:10;;;;;;;14.05;2.05;;;;;;;14.93;87.81;100985.03;4990815;28;20241;-80
2022/10/02 10:32:37;;;;;;;16.38;2.65;;;;;;;14.47;87.18;100995.53;4984978;28;20185;-80
2022/10/02 10:35:39;;;;;;;9.30;1.83;;;;;;;14.27;87.97;101005.50;4989963;28;20241;-80
2022/10/02 10:38:33;;;;;;;7.95;1.55;;;;;;;13.51;87.64;101047.84;4992620;28;20659;-81
2022/10/02 10:41:10;;;;;;;14.98;2.33;;;;;;;13.05;91.99;101034.66;4988581;28;20206;-80
2022/10/02 10:43:40;;;;;;;10.98;2.03;;;;;;;12.88;94.57;101037.22;5000792;28;20252;-80
2022/10/02 10:46:06;;;;;;;9.32;1.77;;;;;;;12.50;97.05;101037.97;4984232;28;20214;-81
2022/10/02 10:49:01;;;;;;;6.93;1.30;;;;;;;12.92;99.21;101038.84;4986496;28;20185;-81
2022/10/02 10:51:31;;;;;;;6.47;1.55;;;;;;;13.18;100.00;101037.66;4994727;28;20561;-81
2022/10/02 10:54:39;;;;;;;9.57;1.80;;;;;;;13.11;100.00;101038.91;4989540;28;20189;-81
2022/10/02 10:57:40;;;;;;;5.60;1.58;;;;;;;13.55;100.00;101044.06;5005913;28;20186;-81
2022/10/02 11:00:19;;;;;;;8.95;1.70;;;;;;;13.76;100.00;101050.25;4971285;28;20631;-81
2022/10/02 11:03:08;;;;;;;7.82;2.03;;;;;;;14.13;100.00;101035.00;4985585;28;20284;-81
2022/10/02 11:06:02;;;;;;;7.30;1.70;;;;;;;14.31;100.00;101038.59;4960145;28;20538;-81
2022/10/02 11:08:42;;;;;;;9.40;1.83;;;;;;;14.16;100.00;101037.53;4986849;28;20186;-81
2022/10/02 11:11:39;;;;;;;11.05;2.28;;;;;;;14.30;98.35;101037.72;4982112;28;20221;-81
2022/10/02 11:14:22;;;;;;;6.07;1.50;;;;;;;14.34;97.29;101047.41;4981429;28;20187;-81
2022/10/02 11:17:20;;;;;;;5.68;1.35;;;;;;;14.32;95.55;101040.31;4988359;28;20520;-81
2022/10/02 11:20:09;;;;;;;9.18;1.75;;;;;;;14.37;94.04;101036.44;5004400;28;20177;-81
2022/10/02 11:23:05;;;;;;;5.30;1.83;;;;;;;14.42;93.40;101047.00;4988608;28;20185;-81
2022/10/02 11:25:57;;;;;;;6.85;1.60;;;;;;;14.74;91.51;101041.81;4997801;28;20244;-81
2022/10/02 11:28:45;;;;;;;12.18;2.10;;;;;;;14.74;90.33;101050.78;4990687;28;20260;-81
2022/10/02 11:31:32;;;;;;;9.52;1.88;;;;;;;14.94;89.92;101051.56;4989135;28;20218;-80
2022/10/02 11:34:20;;;;;;;8.45;1.55;;;;;;;14.52;89.81;101058.16;4990379;28;20230;-80
2022/10/02 11:37:12;;;;;;;6.93;1.58;;;;;;;14.31;90.32;101058.31;5002272;28;20200;-80
2022/10/02 11:39:55;;;;;;;10.45;1.98;;;;;;;14.41;90.51;101054.22;4992139;28;20192;-80
2022/10/02 11:42:43;;;;;;;6.45;1.60;;;;;;;14.49;91.23;101063.72;4976309;28;20185;-80
2022/10/02 11:45:28;;;;;;;7.70;2.28;;;;;;;14.92;91.65;101064.25;4991538;28;20221;-81
2022/10/02 11:48:12;;;;;;;12.55;2.58;;;;;;;15.44;90.71;101062.31;4985659;28;20289;-80
2022/10/02 11:50:57;;;;;;;6.88;1.98;;;;;;;15.63;89.10;101067.59;4983912;28;20214;-81
2022/10/02 11:54:01;;;;;;;12.10;2.72;;;;;;;15.27;88.09;101069.59;4979454;28;20201;-82
2022/10/02 11:56:35;;;;;;;7.95;1.95;;;;;;;14.70;86.96;101073.47;5000852;28;20668;-82
2022/10/02 11:59:30;;;;;;;10.55;2.05;;;;;;;15.14;86.21;101072.94;4992884;28;20193;-82
2022/10/02 12:02:19;;;;;;;5.78;1.80;;;;;;;15.07;86.27;101073.38;4995009;28;20209;-81
2022/10/02 12:04:51;;;;;;;9.35;2.20;;;;;;;15.23;86.02;101064.34;4977025;28;20241;-82
2022/10/02 12:07:32;;;;;;;7.47;2.28;;;;;;;15.47;86.00;101077.47;4995195;28;20193;-82
2022/10/02 12:10:13;;;;;;;10.15;2.42;;;;;;;15.44;86.72;101078.50;4995149;28;20241;-82
2022/10/02 12:13:14;;;;;;;13.07;2.83;;;;;;;15.60;86.79;101081.25;5011051;28;20204;-81
2022/10/02 12:16:02;;;;;;;11.93;2.40;;;;;;;15.66;85.99;101071.94;4992314;28;20192;-83
2022/10/02 12:18:54;;;;;;;10.80;1.90;;;;;;;15.81;85.60;101081.91;4994640;28;20200;-81
2022/10/02 12:27:38;;;;;;;9.40;2.35;;;;;;;15.86;84.51;101074.41;4990109;28;20198;-80
2022/10/02 12:30:11;;;;;;;17.25;3.38;;;;;;;15.57;85.67;101078.72;4980662;28;20214;-81
2022/10/02 12:33:07;;;;;;;14.02;2.97;;;;;;;14.75;85.26;101094.78;4991319;28;20253;-80